sensor_id;sensor_type;location;lat;lon;timestamp;pressure;altitude;pressure_sealevel;temperature;humidity
77482;BME280;66582;43.004;-75.010;2023-05-07T00:01:02;100676.95;;;20.13;28.28
77482;BME280;66582;43.004;-75.010;2023-05-07T00:03:27;100678.16;;;19.91;25.64
77482;BME280;66582;43.004;-75.010;2023-05-07T00:05:52;100681.62;;;18.89;31.32
77482;BME280;66582;43.004;-75.010;2023-05-07T00:08:18;100679.93;;;20.23;29.94
77482;BME280;66582;43.004;-75.010;2023-05-07T00:10:43;100680.07;;;19.62;29.83
77482;BME280;66582;43.004;-75.010;2023-05-07T00:13:08;100677.53;;;20.47;28.99
77482;BME280;66582;43.004;-75.010;2023-05-07T00:15:33;100684.83;;;19.19;33.24
77482;BME280;66582;43.004;-75.010;2023-05-07T00:17:59;100684.16;;;20.04;29.64
77482;BME280;66582;43.004;-75.010;2023-05-07T00:20:24;100688.27;;;20.21;28.42
77482;BME280;66582;43.004;-75.010;2023-05-07T00:22:49;100688.06;;;20.67;28.43
77482;BME280;66582;43.004;-75.010;2023-05-07T00:25:14;100697.32;;;19.07;32.73
77482;BME280;66582;43.004;-75.010;2023-05-07T00:27:39;100696.18;;;19.16;32.05
77482;BME280;66582;43.004;-75.010;2023-05-07T00:30:05;100695.80;;;19.32;31.36
77482;BME280;66582;43.004;-75.010;2023-05-07T00:32:29;100696.62;;;18.38;31.12
77482;BME280;66582;43.004;-75.010;2023-05-07T00:34:55;100696.66;;;19.11;31.87
77482;BME280;66582;43.004;-75.010;2023-05-07T00:37:19;100705.68;;;17.22;34.15
77482;BME280;66582;43.004;-75.010;2023-05-07T00:39:46;100709.06;;;17.38;34.65
77482;BME280;66582;43.004;-75.010;2023-05-07T00:42:11;100708.30;;;16.77;32.21
77482;BME280;66582;43.004;-75.010;2023-05-07T00:44:36;100706.02;;;18.33;32.76
77482;BME280;66582;43.004;-75.010;2023-05-07T00:47:03;100705.77;;;18.84;30.84
77482;BME280;66582;43.004;-75.010;2023-05-07T00:49:34;100705.91;;;18.45;31.69
77482;BME280;66582;43.004;-75.010;2023-05-07T00:51:51;100709.82;;;17.78;32.22
77482;BME280;66582;43.004;-75.010;2023-05-07T00:54:17;100715.46;;;17.67;32.72
77482;BME280;66582;43.004;-75.010;2023-05-07T00:56:42;100724.65;;;17.08;33.64
77482;BME280;66582;43.004;-75.010;2023-05-07T00:59:08;100727.51;;;17.98;33.59
77482;BME280;66582;43.004;-75.010;2023-05-07T01:01:32;100728.31;;;18.19;30.25
77482;BME280;66582;43.004;-75.010;2023-05-07T01:03:57;100737.82;;;17.17;32.11
77482;BME280;66582;43.004;-75.010;2023-05-07T01:06:23;100736.66;;;17.49;31.49
77482;BME280;66582;43.004;-75.010;2023-05-07T01:08:48;100740.60;;;17.71;32.01
77482;BME280;66582;43.004;-75.010;2023-05-07T01:11:13;100748.37;;;17.59;32.45
77482;BME280;66582;43.004;-75.010;2023-05-07T01:13:39;100749.27;;;18.18;32.21
77482;BME280;66582;43.004;-75.010;2023-05-07T01:16:04;100758.73;;;15.75;36.51
77482;BME280;66582;43.004;-75.010;2023-05-07T01:18:28;100762.78;;;16.92;37.05
77482;BME280;66582;43.004;-75.010;2023-05-07T01:20:55;100763.98;;;16.43;37.48
77482;BME280;66582;43.004;-75.010;2023-05-07T01:23:19;100777.02;;;14.32;40.75
77482;BME280;66582;43.004;-75.010;2023-05-07T01:25:51;100770.58;;;15.00;38.08
77482;BME280;66582;43.004;-75.010;2023-05-07T01:28:10;100771.84;;;14.38;39.86
77482;BME280;66582;43.004;-75.010;2023-05-07T01:30:45;100769.83;;;15.17;40.01
77482;BME280;66582;43.004;-75.010;2023-05-07T01:33:04;100764.28;;;15.92;38.13
77482;BME280;66582;43.004;-75.010;2023-05-07T01:35:43;100769.79;;;14.14;41.13
77482;BME280;66582;43.004;-75.010;2023-05-07T01:37:51;100773.86;;;13.56;43.98
77482;BME280;66582;43.004;-75.010;2023-05-07T01:40:17;100769.89;;;14.30;40.41
77482;BME280;66582;43.004;-75.010;2023-05-07T01:42:43;100761.08;;;15.22;40.66
77482;BME280;66582;43.004;-75.010;2023-05-07T01:45:08;100752.45;;;15.54;34.07
77482;BME280;66582;43.004;-75.010;2023-05-07T01:47:33;100748.71;;;16.31;41.19
77482;BME280;66582;43.004;-75.010;2023-05-07T01:49:58;100746.84;;;16.57;36.29
77482;BME280;66582;43.004;-75.010;2023-05-07T01:52:23;100751.30;;;17.01;36.90
77482;BME280;66582;43.004;-75.010;2023-05-07T01:54:48;100750.69;;;14.95;39.50
77482;BME280;66582;43.004;-75.010;2023-05-07T01:57:14;100750.46;;;14.66;40.57
77482;BME280;66582;43.004;-75.010;2023-05-07T01:59:39;100750.79;;;13.63;42.39
77482;BME280;66582;43.004;-75.010;2023-05-07T02:02:05;100750.33;;;13.58;43.49
77482;BME280;66582;43.004;-75.010;2023-05-07T02:04:29;100750.69;;;13.31;45.99
77482;BME280;66582;43.004;-75.010;2023-05-07T02:06:55;100746.61;;;14.27;41.39
77482;BME280;66582;43.004;-75.010;2023-05-07T02:09:20;100746.60;;;13.87;43.57
77482;BME280;66582;43.004;-75.010;2023-05-07T02:11:46;100751.66;;;13.32;45.33
77482;BME280;66582;43.004;-75.010;2023-05-07T02:14:11;100750.16;;;11.94;49.14
77482;BME280;66582;43.004;-75.010;2023-05-07T02:16:36;100748.47;;;13.66;44.76
77482;BME280;66582;43.004;-75.010;2023-05-07T02:19:01;100742.76;;;13.79;43.05
77482;BME280;66582;43.004;-75.010;2023-05-07T02:21:25;100746.85;;;14.34;43.48
77482;BME280;66582;43.004;-75.010;2023-05-07T02:23:50;100741.82;;;14.73;42.36
77482;BME280;66582;43.004;-75.010;2023-05-07T02:26:16;100741.00;;;13.96;43.87
77482;BME280;66582;43.004;-75.010;2023-05-07T02:28:41;100739.43;;;12.49;46.66
77482;BME280;66582;43.004;-75.010;2023-05-07T02:31:06;100737.75;;;13.21;45.59
77482;BME280;66582;43.004;-75.010;2023-05-07T02:33:32;100740.66;;;13.83;44.65
77482;BME280;66582;43.004;-75.010;2023-05-07T02:35:56;100742.14;;;12.23;48.91
77482;BME280;66582;43.004;-75.010;2023-05-07T02:38:22;100742.79;;;11.46;50.95
77482;BME280;66582;43.004;-75.010;2023-05-07T02:40:47;100735.94;;;13.01;48.19
77482;BME280;66582;43.004;-75.010;2023-05-07T02:43:12;100749.04;;;10.46;53.23
77482;BME280;66582;43.004;-75.010;2023-05-07T02:45:37;100751.31;;;10.75;54.52
77482;BME280;66582;43.004;-75.010;2023-05-07T02:48:02;100752.69;;;11.19;54.17
77482;BME280;66582;43.004;-75.010;2023-05-07T02:50:28;100755.70;;;11.56;53.01
77482;BME280;66582;43.004;-75.010;2023-05-07T02:52:53;100755.75;;;12.86;49.33
77482;BME280;66582;43.004;-75.010;2023-05-07T02:55:18;100763.52;;;9.62;60.07
77482;BME280;66582;43.004;-75.010;2023-05-07T02:57:43;100767.46;;;9.68;62.39
77482;BME280;66582;43.004;-75.010;2023-05-07T03:00:14;100759.86;;;10.40;59.74
77482;BME280;66582;43.004;-75.010;2023-05-07T03:02:34;100758.47;;;10.11;60.66
77482;BME280;66582;43.004;-75.010;2023-05-07T03:04:59;100759.23;;;9.21;64.42
77482;BME280;66582;43.004;-75.010;2023-05-07T03:07:25;100762.92;;;8.64;66.33
77482;BME280;66582;43.004;-75.010;2023-05-07T03:09:49;100756.05;;;8.82;68.25
77482;BME280;66582;43.004;-75.010;2023-05-07T03:12:14;100749.87;;;9.66;63.04
77482;BME280;66582;43.004;-75.010;2023-05-07T03:14:39;100745.94;;;10.39;58.07
77482;BME280;66582;43.004;-75.010;2023-05-07T03:17:06;100750.25;;;9.58;62.10
77482;BME280;66582;43.004;-75.010;2023-05-07T03:19:30;100743.75;;;9.62;62.09
77482;BME280;66582;43.004;-75.010;2023-05-07T03:21:55;100742.89;;;10.25;61.42
77482;BME280;66582;43.004;-75.010;2023-05-07T03:24:21;100746.19;;;9.81;61.67
77482;BME280;66582;43.004;-75.010;2023-05-07T03:26:46;100743.95;;;10.19;59.11
77482;BME280;66582;43.004;-75.010;2023-05-07T03:29:12;100749.15;;;9.81;60.21
77482;BME280;66582;43.004;-75.010;2023-05-07T03:31:37;100747.74;;;8.92;63.03
77482;BME280;66582;43.004;-75.010;2023-05-07T03:34:02;100749.82;;;8.48;65.98
77482;BME280;66582;43.004;-75.010;2023-05-07T03:36:27;100745.97;;;9.57;62.35
77482;BME280;66582;43.004;-75.010;2023-05-07T03:38:52;100743.56;;;8.65;64.95
77482;BME280;66582;43.004;-75.010;2023-05-07T03:41:18;100740.37;;;8.54;66.52
77482;BME280;66582;43.004;-75.010;2023-05-07T03:43:42;100735.12;;;7.60;69.77
77482;BME280;66582;43.004;-75.010;2023-05-07T03:46:08;100732.01;;;8.37;71.50
77482;BME280;66582;43.004;-75.010;2023-05-07T03:48:33;100732.94;;;8.95;67.37
77482;BME280;66582;43.004;-75.010;2023-05-07T03:50:59;100737.29;;;8.25;69.90
77482;BME280;66582;43.004;-75.010;2023-05-07T03:53:23;100735.96;;;8.02;70.47
77482;BME280;66582;43.004;-75.010;2023-05-07T03:55:48;100735.81;;;8.40;67.16
77482;BME280;66582;43.004;-75.010;2023-05-07T03:58:13;100737.22;;;8.10;69.19
77482;BME280;66582;43.004;-75.010;2023-05-07T04:00:38;100732.01;;;7.68;71.08
77482;BME280;66582;43.004;-75.010;2023-05-07T04:03:04;100731.00;;;8.14;69.84
77482;BME280;66582;43.004;-75.010;2023-05-07T04:05:29;100729.35;;;7.70;72.03
77482;BME280;66582;43.004;-75.010;2023-05-07T04:07:54;100729.10;;;8.43;70.08
77482;BME280;66582;43.004;-75.010;2023-05-07T04:10:19;100728.01;;;8.83;66.43
77482;BME280;66582;43.004;-75.010;2023-05-07T04:12:44;100727.56;;;8.45;68.53
77482;BME280;66582;43.004;-75.010;2023-05-07T04:15:10;100732.52;;;7.86;70.34
77482;BME280;66582;43.004;-75.010;2023-05-07T04:17:34;100729.37;;;8.86;65.45
77482;BME280;66582;43.004;-75.010;2023-05-07T04:19:59;100725.62;;;10.54;58.27
77482;BME280;66582;43.004;-75.010;2023-05-07T04:22:25;100724.83;;;11.48;55.53
77482;BME280;66582;43.004;-75.010;2023-05-07T04:24:50;100727.83;;;11.59;56.11
77482;BME280;66582;43.004;-75.010;2023-05-07T04:27:15;100731.39;;;10.98;56.78
77482;BME280;66582;43.004;-75.010;2023-05-07T04:29:41;100724.66;;;12.39;53.12
77482;BME280;66582;43.004;-75.010;2023-05-07T04:32:05;100724.74;;;13.49;48.34
77482;BME280;66582;43.004;-75.010;2023-05-07T04:34:30;100723.97;;;11.72;49.75
77482;BME280;66582;43.004;-75.010;2023-05-07T04:36:58;100728.10;;;11.55;50.22
77482;BME280;66582;43.004;-75.010;2023-05-07T04:39:20;100745.58;;;8.97;58.60
77482;BME280;66582;43.004;-75.010;2023-05-07T04:41:45;100746.17;;;9.00;60.61
77482;BME280;66582;43.004;-75.010;2023-05-07T04:44:12;100746.81;;;8.82;61.82
77482;BME280;66582;43.004;-75.010;2023-05-07T04:46:36;100751.20;;;8.24;64.62
77482;BME280;66582;43.004;-75.010;2023-05-07T04:49:01;100746.77;;;8.34;64.58
77482;BME280;66582;43.004;-75.010;2023-05-07T04:51:27;100741.81;;;10.02;58.20
77482;BME280;66582;43.004;-75.010;2023-05-07T04:53:51;100740.69;;;10.48;56.62
77482;BME280;66582;43.004;-75.010;2023-05-07T04:56:16;100747.56;;;9.88;57.58
77482;BME280;66582;43.004;-75.010;2023-05-07T04:58:42;100745.03;;;10.11;57.68
77482;BME280;66582;43.004;-75.010;2023-05-07T05:01:06;100745.32;;;10.31;55.15
77482;BME280;66582;43.004;-75.010;2023-05-07T05:03:32;100749.51;;;9.59;56.59
77482;BME280;66582;43.004;-75.010;2023-05-07T05:05:57;100749.41;;;9.82;58.64
77482;BME280;66582;43.004;-75.010;2023-05-07T05:08:22;100743.16;;;10.73;55.40
77482;BME280;66582;43.004;-75.010;2023-05-07T05:10:48;100745.80;;;10.32;55.10
77482;BME280;66582;43.004;-75.010;2023-05-07T05:13:12;100751.76;;;9.24;59.88
77482;BME280;66582;43.004;-75.010;2023-05-07T05:15:39;100749.09;;;9.97;56.39
77482;BME280;66582;43.004;-75.010;2023-05-07T05:18:03;100748.62;;;9.56;58.26
77482;BME280;66582;43.004;-75.010;2023-05-07T05:20:28;100740.96;;;9.94;56.20
77482;BME280;66582;43.004;-75.010;2023-05-07T05:22:52;100738.80;;;10.46;55.40
77482;BME280;66582;43.004;-75.010;2023-05-07T05:25:18;100734.73;;;9.82;56.22
77482;BME280;66582;43.004;-75.010;2023-05-07T05:27:43;100720.45;;;11.59;52.02
77482;BME280;66582;43.004;-75.010;2023-05-07T05:30:09;100723.93;;;10.25;54.30
77482;BME280;66582;43.004;-75.010;2023-05-07T05:32:34;100714.72;;;11.17;51.41
77482;BME280;66582;43.004;-75.010;2023-05-07T05:34:59;100717.86;;;9.92;54.91
77482;BME280;66582;43.004;-75.010;2023-05-07T05:37:25;100706.46;;;12.30;49.33
77482;BME280;66582;43.004;-75.010;2023-05-07T05:39:48;100701.31;;;11.26;50.56
77482;BME280;66582;43.004;-75.010;2023-05-07T05:42:13;100700.62;;;11.21;50.88
77482;BME280;66582;43.004;-75.010;2023-05-07T05:44:39;100696.47;;;12.02;49.60
77482;BME280;66582;43.004;-75.010;2023-05-07T05:47:04;100694.87;;;11.41;51.71
77482;BME280;66582;43.004;-75.010;2023-05-07T05:49:29;100689.21;;;10.79;51.85
77482;BME280;66582;43.004;-75.010;2023-05-07T05:51:54;100694.41;;;9.78;55.64
77482;BME280;66582;43.004;-75.010;2023-05-07T05:54:20;100690.47;;;10.95;53.54
77482;BME280;66582;43.004;-75.010;2023-05-07T05:56:45;100692.71;;;9.99;54.83
77482;BME280;66582;43.004;-75.010;2023-05-07T05:59:09;100689.70;;;10.17;54.48
77482;BME280;66582;43.004;-75.010;2023-05-07T06:01:35;100684.62;;;10.74;51.98
77482;BME280;66582;43.004;-75.010;2023-05-07T06:04:00;100689.39;;;11.11;51.78
77482;BME280;66582;43.004;-75.010;2023-05-07T06:06:25;100686.80;;;10.19;53.83
77482;BME280;66582;43.004;-75.010;2023-05-07T06:08:50;100689.71;;;9.26;56.12
77482;BME280;66582;43.004;-75.010;2023-05-07T06:11:15;100683.46;;;9.76;55.67
77482;BME280;66582;43.004;-75.010;2023-05-07T06:13:40;100679.94;;;10.17;53.79
77482;BME280;66582;43.004;-75.010;2023-05-07T06:16:07;100683.70;;;9.18;55.51
77482;BME280;66582;43.004;-75.010;2023-05-07T06:18:31;100683.62;;;9.79;56.11
77482;BME280;66582;43.004;-75.010;2023-05-07T06:20:56;100678.25;;;11.33;51.75
77482;BME280;66582;43.004;-75.010;2023-05-07T06:23:21;100675.67;;;12.16;48.43
77482;BME280;66582;43.004;-75.010;2023-05-07T06:25:48;100684.53;;;10.29;52.70
77482;BME280;66582;43.004;-75.010;2023-05-07T06:28:11;100682.66;;;10.32;53.85
77482;BME280;66582;43.004;-75.010;2023-05-07T06:30:37;100690.76;;;9.23;56.59
77482;BME280;66582;43.004;-75.010;2023-05-07T06:33:01;100687.86;;;8.52;57.19
77482;BME280;66582;43.004;-75.010;2023-05-07T06:35:26;100682.62;;;10.79;53.90
77482;BME280;66582;43.004;-75.010;2023-05-07T06:37:52;100689.05;;;11.04;52.45
77482;BME280;66582;43.004;-75.010;2023-05-07T06:40:17;100691.90;;;9.89;54.15
77482;BME280;66582;43.004;-75.010;2023-05-07T06:42:42;100693.30;;;8.63;58.83
77482;BME280;66582;43.004;-75.010;2023-05-07T06:45:09;100688.54;;;10.17;54.42
77482;BME280;66582;43.004;-75.010;2023-05-07T06:47:33;100684.38;;;10.48;52.92
77482;BME280;66582;43.004;-75.010;2023-05-07T06:49:58;100688.71;;;8.99;55.23
77482;BME280;66582;43.004;-75.010;2023-05-07T06:52:23;100687.82;;;9.78;54.46
77482;BME280;66582;43.004;-75.010;2023-05-07T06:54:47;100683.89;;;9.55;56.40
77482;BME280;66582;43.004;-75.010;2023-05-07T06:57:12;100686.24;;;8.56;60.37
77482;BME280;66582;43.004;-75.010;2023-05-07T06:59:38;100684.20;;;9.62;56.44
77482;BME280;66582;43.004;-75.010;2023-05-07T07:02:03;100684.84;;;8.21;59.21
77482;BME280;66582;43.004;-75.010;2023-05-07T07:04:28;100682.18;;;9.03;58.55
77482;BME280;66582;43.004;-75.010;2023-05-07T07:06:55;100681.45;;;8.80;59.43
77482;BME280;66582;43.004;-75.010;2023-05-07T07:09:19;100682.96;;;8.82;57.47
77482;BME280;66582;43.004;-75.010;2023-05-07T07:11:43;100681.69;;;8.42;59.95
77482;BME280;66582;43.004;-75.010;2023-05-07T07:14:09;100682.81;;;8.99;58.00
77482;BME280;66582;43.004;-75.010;2023-05-07T07:16:34;100682.97;;;9.30;56.09
77482;BME280;66582;43.004;-75.010;2023-05-07T07:18:59;100673.00;;;10.44;52.36
77482;BME280;66582;43.004;-75.010;2023-05-07T07:21:24;100675.90;;;9.46;55.43
77482;BME280;66582;43.004;-75.010;2023-05-07T07:23:49;100680.94;;;9.57;54.34
77482;BME280;66582;43.004;-75.010;2023-05-07T07:26:14;100676.39;;;10.00;53.04
77482;BME280;66582;43.004;-75.010;2023-05-07T07:28:43;100677.54;;;8.49;58.09
77482;BME280;66582;43.004;-75.010;2023-05-07T07:31:05;100671.08;;;10.18;54.39
77482;BME280;66582;43.004;-75.010;2023-05-07T07:33:30;100667.78;;;10.49;51.70
77482;BME280;66582;43.004;-75.010;2023-05-07T07:35:56;100664.90;;;11.27;49.61
77482;BME280;66582;43.004;-75.010;2023-05-07T07:38:21;100672.60;;;10.05;52.15
77482;BME280;66582;43.004;-75.010;2023-05-07T07:40:47;100674.26;;;9.79;53.14
77482;BME280;66582;43.004;-75.010;2023-05-07T07:43:10;100665.30;;;11.06;49.52
77482;BME280;66582;43.004;-75.010;2023-05-07T07:45:36;100661.76;;;11.08;48.50
77482;BME280;66582;43.004;-75.010;2023-05-07T07:48:01;100671.17;;;9.36;53.07
77482;BME280;66582;43.004;-75.010;2023-05-07T07:50:26;100669.86;;;9.55;53.88
77482;BME280;66582;43.004;-75.010;2023-05-07T07:52:51;100665.83;;;10.60;50.47
77482;BME280;66582;43.004;-75.010;2023-05-07T07:55:19;100663.42;;;10.29;50.26
77482;BME280;66582;43.004;-75.010;2023-05-07T07:57:41;100668.18;;;9.03;53.64
77482;BME280;66582;43.004;-75.010;2023-05-07T08:00:07;100664.89;;;9.34;54.74
77482;BME280;66582;43.004;-75.010;2023-05-07T08:02:32;100665.94;;;8.46;55.36
77482;BME280;66582;43.004;-75.010;2023-05-07T08:04:57;100665.31;;;9.39;54.45
77482;BME280;66582;43.004;-75.010;2023-05-07T08:07:22;100663.20;;;9.01;54.23
77482;BME280;66582;43.004;-75.010;2023-05-07T08:09:47;100657.23;;;10.52;51.04
77482;BME280;66582;43.004;-75.010;2023-05-07T08:12:13;100661.81;;;9.65;53.24
77482;BME280;66582;43.004;-75.010;2023-05-07T08:14:38;100663.26;;;9.49;54.72
77482;BME280;66582;43.004;-75.010;2023-05-07T08:17:04;100653.49;;;10.49;52.14
77482;BME280;66582;43.004;-75.010;2023-05-07T08:19:28;100656.14;;;8.04;56.62
77482;BME280;66582;43.004;-75.010;2023-05-07T08:21:53;100658.53;;;6.36;64.91
77482;BME280;66582;43.004;-75.010;2023-05-07T08:24:18;100653.02;;;8.88;56.74
77482;BME280;66582;43.004;-75.010;2023-05-07T08:26:44;100653.21;;;8.47;57.54
77482;BME280;66582;43.004;-75.010;2023-05-07T08:29:08;100651.51;;;9.57;54.19
77482;BME280;66582;43.004;-75.010;2023-05-07T08:31:33;100657.62;;;7.87;58.78
77482;BME280;66582;43.004;-75.010;2023-05-07T08:33:59;100659.20;;;6.85;62.28
77482;BME280;66582;43.004;-75.010;2023-05-07T08:36:24;100666.19;;;5.22;71.16
77482;BME280;66582;43.004;-75.010;2023-05-07T08:38:49;100657.57;;;6.72;66.51
77482;BME280;66582;43.004;-75.010;2023-05-07T08:41:14;100649.54;;;7.16;62.48
77482;BME280;66582;43.004;-75.010;2023-05-07T08:43:41;100648.53;;;7.27;63.73
77482;BME280;66582;43.004;-75.010;2023-05-07T08:46:04;100647.23;;;6.87;64.76
77482;BME280;66582;43.004;-75.010;2023-05-07T08:48:30;100645.57;;;6.84;64.65
77482;BME280;66582;43.004;-75.010;2023-05-07T08:50:55;100638.10;;;7.65;61.49
77482;BME280;66582;43.004;-75.010;2023-05-07T08:53:20;100632.81;;;8.33;58.90
77482;BME280;66582;43.004;-75.010;2023-05-07T08:55:46;100630.68;;;7.15;62.37
77482;BME280;66582;43.004;-75.010;2023-05-07T08:58:11;100622.69;;;9.51;56.47
77482;BME280;66582;43.004;-75.010;2023-05-07T09:00:36;100616.58;;;9.78;54.28
77482;BME280;66582;43.004;-75.010;2023-05-07T09:03:01;100605.64;;;10.16;52.56
77482;BME280;66582;43.004;-75.010;2023-05-07T09:05:25;100600.24;;;10.09;51.71
77482;BME280;66582;43.004;-75.010;2023-05-07T09:07:51;100598.32;;;9.92;51.36
77482;BME280;66582;43.004;-75.010;2023-05-07T09:10:16;100599.76;;;9.60;53.78
77482;BME280;66582;43.004;-75.010;2023-05-07T09:12:41;100593.09;;;9.74;51.96
77482;BME280;66582;43.004;-75.010;2023-05-07T09:15:08;100593.97;;;7.45;56.29
77482;BME280;66582;43.004;-75.010;2023-05-07T09:17:31;100593.19;;;7.37;59.77
77482;BME280;66582;43.004;-75.010;2023-05-07T09:19:56;100591.65;;;7.91;57.73
77482;BME280;66582;43.004;-75.010;2023-05-07T09:22:21;100585.99;;;9.37;55.20
77482;BME280;66582;43.004;-75.010;2023-05-07T09:24:48;100582.98;;;9.65;52.85
77482;BME280;66582;43.004;-75.010;2023-05-07T09:27:12;100579.57;;;9.97;51.37
77482;BME280;66582;43.004;-75.010;2023-05-07T09:29:37;100577.60;;;10.08;50.87
77482;BME280;66582;43.004;-75.010;2023-05-07T09:32:02;100574.45;;;10.61;48.94
77482;BME280;66582;43.004;-75.010;2023-05-07T09:34:27;100575.08;;;10.26;49.18
77482;BME280;66582;43.004;-75.010;2023-05-07T09:36:53;100572.11;;;10.12;50.42
77482;BME280;66582;43.004;-75.010;2023-05-07T09:39:18;100570.43;;;10.19;50.14
77482;BME280;66582;43.004;-75.010;2023-05-07T09:41:45;100567.97;;;11.21;48.13
77482;BME280;66582;43.004;-75.010;2023-05-07T09:44:08;100564.34;;;11.03;48.03
77482;BME280;66582;43.004;-75.010;2023-05-07T09:46:34;100563.58;;;11.33;46.40
77482;BME280;66582;43.004;-75.010;2023-05-07T09:48:58;100568.35;;;11.08;46.98
77482;BME280;66582;43.004;-75.010;2023-05-07T09:51:28;100574.30;;;9.69;48.79
77482;BME280;66582;43.004;-75.010;2023-05-07T09:53:49;100578.25;;;10.96;47.16
77482;BME280;66582;43.004;-75.010;2023-05-07T09:56:14;100580.64;;;10.68;47.11
77482;BME280;66582;43.004;-75.010;2023-05-07T09:58:40;100580.77;;;10.74;47.49
77482;BME280;66582;43.004;-75.010;2023-05-07T10:01:04;100590.26;;;6.43;57.46
77482;BME280;66582;43.004;-75.010;2023-05-07T10:03:29;100583.01;;;6.81;59.08
77482;BME280;66582;43.004;-75.010;2023-05-07T10:05:54;100578.41;;;9.18;53.05
77482;BME280;66582;43.004;-75.010;2023-05-07T10:08:20;100571.65;;;9.77;51.03
77482;BME280;66582;43.004;-75.010;2023-05-07T10:10:45;100568.31;;;9.99;50.45
77482;BME280;66582;43.004;-75.010;2023-05-07T10:13:10;100574.07;;;8.61;53.82
77482;BME280;66582;43.004;-75.010;2023-05-07T10:15:35;100574.44;;;7.51;56.68
77482;BME280;66582;43.004;-75.010;2023-05-07T10:18:00;100570.14;;;8.87;53.30
77482;BME280;66582;43.004;-75.010;2023-05-07T10:20:26;100563.62;;;10.68;49.61
77482;BME280;66582;43.004;-75.010;2023-05-07T10:22:53;100561.28;;;9.89;49.64
77482;BME280;66582;43.004;-75.010;2023-05-07T10:25:20;100558.76;;;11.11;47.63
77482;BME280;66582;43.004;-75.010;2023-05-07T10:27:41;100556.01;;;11.19;47.11
77482;BME280;66582;43.004;-75.010;2023-05-07T10:30:12;100555.94;;;11.37;46.69
77482;BME280;66582;43.004;-75.010;2023-05-07T10:32:39;100559.09;;;11.36;46.32
77482;BME280;66582;43.004;-75.010;2023-05-07T10:35:00;100564.44;;;11.22;46.75
77482;BME280;66582;43.004;-75.010;2023-05-07T10:37:21;100565.49;;;11.10;47.25
77482;BME280;66582;43.004;-75.010;2023-05-07T10:39:46;100575.92;;;8.52;52.14
77482;BME280;66582;43.004;-75.010;2023-05-07T10:42:13;100588.42;;;5.72;63.22
77482;BME280;66582;43.004;-75.010;2023-05-07T10:44:36;100591.33;;;5.54;69.75
77482;BME280;66582;43.004;-75.010;2023-05-07T10:47:07;100576.59;;;6.74;64.20
77482;BME280;66582;43.004;-75.010;2023-05-07T10:49:27;100567.50;;;8.10;58.69
77482;BME280;66582;43.004;-75.010;2023-05-07T10:54:22;100557.66;;;8.33;58.10
77482;BME280;66582;43.004;-75.010;2023-05-07T10:56:44;100548.17;;;9.10;54.69
77482;BME280;66582;43.004;-75.010;2023-05-07T11:06:23;100531.97;;;9.02;54.74
77482;BME280;66582;43.004;-75.010;2023-05-07T11:08:55;100536.20;;;6.79;61.49
77482;BME280;66582;43.004;-75.010;2023-05-07T11:11:14;100535.30;;;9.27;55.66
77482;BME280;66582;43.004;-75.010;2023-05-07T11:13:43;100540.03;;;8.95;54.13
77482;BME280;66582;43.004;-75.010;2023-05-07T11:16:07;100539.90;;;10.42;51.92
77482;BME280;66582;43.004;-75.010;2023-05-07T11:18:46;100544.02;;;11.32;49.03
77482;BME280;66582;43.004;-75.010;2023-05-07T11:20:58;100548.03;;;11.27;48.13
77482;BME280;66582;43.004;-75.010;2023-05-07T11:25:45;100538.90;;;11.01;48.31
77482;BME280;66582;43.004;-75.010;2023-05-07T11:28:10;100529.77;;;11.77;47.35
77482;BME280;66582;43.004;-75.010;2023-05-07T11:30:35;100526.16;;;12.02;46.05
77482;BME280;66582;43.004;-75.010;2023-05-07T11:33:00;100521.86;;;12.43;45.22
77482;BME280;66582;43.004;-75.010;2023-05-07T11:35:25;100519.89;;;11.96;45.30
77482;BME280;66582;43.004;-75.010;2023-05-07T11:37:57;100512.17;;;12.29;45.15
77482;BME280;66582;43.004;-75.010;2023-05-07T11:40:15;100499.73;;;13.75;44.32
77482;BME280;66582;43.004;-75.010;2023-05-07T11:42:41;100497.67;;;14.37;42.39
77482;BME280;66582;43.004;-75.010;2023-05-07T11:45:07;100497.72;;;15.05;42.28
77482;BME280;66582;43.004;-75.010;2023-05-07T11:47:31;100496.29;;;16.04;40.09
77482;BME280;66582;43.004;-75.010;2023-05-07T11:49:56;100499.35;;;15.19;39.86
77482;BME280;66582;43.004;-75.010;2023-05-07T11:52:22;100494.88;;;15.56;38.99
77482;BME280;66582;43.004;-75.010;2023-05-07T11:54:49;100493.75;;;14.75;41.43
77482;BME280;66582;43.004;-75.010;2023-05-07T11:57:15;100487.53;;;16.44;39.22
77482;BME280;66582;43.004;-75.010;2023-05-07T11:59:41;100483.19;;;16.29;38.88
77482;BME280;66582;43.004;-75.010;2023-05-07T12:02:02;100479.06;;;16.98;37.78
77482;BME280;66582;43.004;-75.010;2023-05-07T12:04:28;100473.44;;;17.80;36.06
77482;BME280;66582;43.004;-75.010;2023-05-07T12:06:54;100469.94;;;17.50;35.42
77482;BME280;66582;43.004;-75.010;2023-05-07T12:09:17;100465.36;;;17.74;34.98
77482;BME280;66582;43.004;-75.010;2023-05-07T12:11:46;100466.90;;;17.94;35.49
77482;BME280;66582;43.004;-75.010;2023-05-07T12:14:08;100462.82;;;18.30;33.86
77482;BME280;66582;43.004;-75.010;2023-05-07T12:16:32;100456.55;;;19.06;33.62
77482;BME280;66582;43.004;-75.010;2023-05-07T12:18:59;100449.60;;;18.70;33.17
77482;BME280;66582;43.004;-75.010;2023-05-07T12:21:23;100444.33;;;19.54;32.70
77482;BME280;66582;43.004;-75.010;2023-05-07T12:23:48;100444.78;;;19.61;32.98
77482;BME280;66582;43.004;-75.010;2023-05-07T12:26:13;100448.02;;;17.48;36.69
77482;BME280;66582;43.004;-75.010;2023-05-07T12:28:39;100447.44;;;15.12;41.95
77482;BME280;66582;43.004;-75.010;2023-05-07T12:31:04;100441.92;;;17.55;37.69
77482;BME280;66582;43.004;-75.010;2023-05-07T12:33:29;100435.98;;;18.24;35.36